• Join FlightAware (Why Join?)
  • Login
  • US Flag 
11:11PM EDT


 

Airport Tracker/Info


-or-


 

Live Flight TrackerFlight Track Log ✈ ASH3732 ✈ 04-Nov-2013 ✈ KORD - KELP

Flight Track Log - Related Links

Times and Time Zones

All times are in EST time to prevent confusion due to time zone crossing. See the ASH3732 flight status page for this flight to view local times or setup timezone preferences in your user account.

Time Position Orientation Groundspeed Altitude Reporting Facility
EST Latitude Longitude Course Direction KTS MPH feet Rate Location/Type
09:59PM 41.9333 -87.9667 243° Southwest 188 216 4,000  Level Chicago TRACON
10:00PM 41.9167 -88.0333 251° West 241 277 4,900 1,440 Climbing Chicago TRACON
10:02PM 41.8819 -88.2256 256° West 242 278 8,300 1,860 Climbing Chicago Center
10:03PM 41.8686 -88.3161 259° West 248 285 10,900 1,800 Climbing Chicago Center
10:04PM 41.6926 -88.6086 243° Southwest  Level Estimated
10:04PM 41.8542 -88.4164 259° West 272 313 12,100  Level Chicago Center
10:05PM 41.8364 -88.5356 259° West 315 362 13,000 1,080 Climbing Chicago Center
10:06PM 41.8161 -88.6694 259° West 354 407 14,400 1,380 Climbing Chicago Center
10:07PM 41.7958 -88.8056 259° West 373 429 15,900 1,620 Climbing Chicago Center
10:08PM 41.7778 -88.9461 260° West 382 440 17,800 1,980 Climbing Chicago Center
10:09PM 41.7583 -89.1111 261° West 377 434 20,000 1,800 Climbing Chicago Center
10:10PM 41.7231 -89.2375 250° West 367 422 21,600 1,320 Climbing Chicago Center
10:11PM 41.6786 -89.3600 244° Southwest 367 422 22,800 1,080 Climbing Chicago Center
10:12PM 41.6317 -89.4881 244° Southwest 382 440 23,800 1,020 Climbing Chicago Center
10:13PM 41.5792 -89.6275 243° Southwest 391 450 24,900 1,020 Climbing Chicago Center
10:14PM 41.5306 -89.7581 244° Southwest 394 453 25,900 960 Climbing Chicago Center
10:15PM 41.4761 -89.8886 241° Southwest 402 463 26,900 1,020 Climbing Chicago Center
10:16PM 41.4225 -90.0178 241° Southwest 402 463 28,000 1,020 Climbing Chicago Center
10:17PM 41.3692 -90.1464 241° Southwest 400 460 29,000 960 Climbing Chicago Center
10:18PM 41.3172 -90.2717 241° Southwest 393 452 30,000 960 Climbing Chicago Center
10:19PM 41.2650 -90.3950 241° Southwest 387 445 31,000 960 Climbing Chicago Center
10:20PM 41.2136 -90.5189 241° Southwest 387 445 32,000 480 Climbing Chicago Center
10:21PM 41.1622 -90.6400 241° Southwest 381 438 32,000  Level Chicago Center
10:22PM 41.0983 -90.7892 240° Southwest 386 444 32,000  Level Chicago Center
10:23PM 41.0444 -90.9139 240° Southwest 390 449 32,000  Level Chicago Center
10:24PM 40.9908 -91.0389 240° Southwest 392 451 32,000  Level Chicago Center
10:25PM 40.9367 -91.1636 240° Southwest 392 451 32,000  Level Chicago Center
10:26PM 40.8836 -91.2894 241° Southwest 394 453 32,000  Level Chicago Center
10:27PM 40.8294 -91.4108 240° Southwest 395 455 32,000  Level Chicago Center
10:28PM 40.7761 -91.5372 241° Southwest 397 457 32,000  Level Chicago Center
10:29PM 40.7331 -91.6686 247° West 395 455 32,000  Level Chicago Center
10:30PM 40.6794 -91.8264 246° West 396 456 32,000  Level Chicago Center
10:31PM 40.6356 -91.9578 246° West 395 455 32,000  Level Chicago Center
10:32PM 40.5989 -92.0619 245° Southwest 397 457 32,000  Level Kansas City Center
10:33PM 40.5556 -92.1919 246° West 394 453 32,000  Level Kansas City Center
10:34PM 40.5111 -92.3219 246° West 393 452 32,000  Level Kansas City Center
10:35PM 40.4631 -92.4647 246° West 396 456 32,000  Level Kansas City Center
10:36PM 40.4178 -92.5964 246° West 396 456 32,000  Level Kansas City Center
10:37PM 40.3717 -92.7244 245° Southwest 396 456 32,000  Level Kansas City Center
10:38PM 40.3011 -92.8550 235° Southwest 393 452 32,000  Level Kansas City Center
10:39PM 40.2414 -92.9692 236° Southwest 397 457 32,000  Level Kansas City Center
10:40PM 40.1817 -93.0842 236° Southwest 399 459 32,000  Level Kansas City Center
10:41PM 40.1211 -93.2019 236° Southwest 399 459 32,000  Level Kansas City Center
10:42PM 40.0450 -93.3406 234° Southwest 396 456 32,000  Level Kansas City Center
10:43PM 39.9825 -93.4575 235° Southwest 396 456 32,000  Level Kansas City Center
10:45PM 39.9194 -93.5739 235° Southwest 397 457 32,000  Level Kansas City Center
10:46PM 39.8575 -93.6897 235° Southwest 394 453 32,000  Level Kansas City Center
10:47PM 39.7892 -93.8156 235° Southwest 394 453 32,000  Level Kansas City Center
10:48PM 39.7294 -93.9267 235° Southwest 393 452 32,000  Level Kansas City Center
10:49PM 39.6581 -94.0589 235° Southwest 396 456 32,000  Level Kansas City Center
10:50PM 39.5975 -94.1700 235° Southwest 395 455 32,000  Level Kansas City Center
10:51PM 39.5367 -94.2822 235° Southwest 396 456 32,000  Level Kansas City Center
10:52PM 39.4647 -94.4128 235° Southwest 399 459 32,000  Level Kansas City Center
10:53PM 39.4031 -94.5250 235° Southwest 399 459 32,000  Level Kansas City Center
10:54PM 39.3422 -94.6367 235° Southwest 397 457 32,000  Level Kansas City Center
10:55PM 39.2692 -94.7639 233° Southwest 395 455 32,000  Level Kansas City Center
10:56PM 39.2103 -94.8797 237° Southwest 399 459 32,000  Level Kansas City Center
10:57PM 39.1514 -94.9928 236° Southwest 395 455 32,000  Level Kansas City Center
10:58PM 39.0828 -95.1242 236° Southwest 397 457 32,000  Level Kansas City Center
10:59PM 39.0208 -95.2422 236° Southwest 400 460 32,000  Level Kansas City Center
11:00PM 38.9614 -95.3553 236° Southwest 397 457 32,000  Level Kansas City Center
11:01PM 38.9008 -95.4694 236° Southwest 402 463 32,000  Level Kansas City Center
11:02PM 38.8311 -95.6017 236° Southwest 400 460 32,000  Level Kansas City Center
11:03PM 38.7722 -95.7142 236° Southwest 398 458 32,000  Level Kansas City Center
11:04PM 38.7119 -95.8283 236° Southwest 404 465 32,000  Level Kansas City Center
11:05PM 38.6419 -95.9594 236° Southwest 401 461 32,000  Level Kansas City Center
11:06PM 38.5814 -96.0714 235° Southwest 399 459 32,000  Level Kansas City Center
11:07PM 38.5206 -96.1822 235° Southwest 397 457 32,000  Level Kansas City Center
11:08PM 38.4497 -96.3131 235° Southwest 400 460 32,000  Level Kansas City Center
11:09PM 38.3886 -96.4247 235° Southwest 401 461 32,000  Level Kansas City Center
11:10PM 38.3236 -96.5450 235° Southwest 404 465 32,000  Level Kansas City Center
11:11PM 38.2600 -96.6611 235° Southwest 401 461 32,000  Level Kansas City Center
11:12PM 38.1958 -96.7781 235° Southwest 401 461 32,000  Level Kansas City Center
11:13PM 38.1314 -96.8944 235° Southwest 402 463 32,000  Level Kansas City Center
11:14PM 38.0667 -97.0111 235° Southwest 404 465 32,000  Level Kansas City Center
11:15PM 38.0025 -97.1275 235° Southwest 402 463 32,000  Level Kansas City Center
11:16PM 37.9367 -97.2439 234° Southwest 404 465 32,000  Level Kansas City Center
11:17PM 37.8717 -97.3619 235° Southwest 406 467 32,000  Level Kansas City Center
11:18PM 37.7972 -97.4950 235° Southwest 404 465 32,000  Level Kansas City Center
11:19PM 37.7306 -97.6106 234° Southwest 404 465 32,000  Level Kansas City Center
11:20PM 37.6622 -97.7258 233° Southwest 408 470 32,000  Level Kansas City Center
11:21PM 37.5994 -97.8261 232° Southwest 410 472 32,000  Level Kansas City Center
11:22PM 37.5317 -97.9403 233° Southwest 406 467 32,000  Level Kansas City Center
11:23PM 37.4611 -98.0542 232° Southwest 408 470 32,000  Level Kansas City Center
11:24PM 37.3917 -98.1686 233° Southwest 409 471 32,000  Level Kansas City Center
11:25PM 37.3236 -98.2817 233° Southwest 407 468 32,000  Level Kansas City Center
11:26PM 37.2542 -98.3961 233° Southwest 409 471 32,000  Level Kansas City Center
11:27PM 37.1869 -98.5083 233° Southwest 405 466 32,000  Level Kansas City Center
11:28PM 37.1058 -98.6422 233° Southwest 403 464 32,000  Level Kansas City Center
11:29PM 37.0453 -98.7425 233° Southwest 401 461 32,000  Level Kansas City Center
11:30PM 36.9778 -98.8542 233° Southwest 401 461 32,000  Level Kansas City Center
11:31PM 36.9106 -98.9656 233° Southwest 401 461 32,000 60 Level Kansas City Center
11:32PM 36.8425 -99.0750 232° Southwest 400 460 32,200 900 Climbing Kansas City Center
11:33PM 36.7797 -99.1806 233° Southwest 387 445 33,900 840 Climbing Kansas City Center
11:34PM 36.7194 -99.2750 231° Southwest 360 414 34,000  Climbing Kansas City Center
11:35PM 36.6583 -99.3742 232° Southwest 357 411 34,000  Level Kansas City Center
11:36PM 36.5861 -99.4922 233° Southwest 359 413 34,000  Level Kansas City Center
11:37PM 36.5253 -99.5903 232° Southwest 359 413 34,000  Level Kansas City Center
11:38PM 36.4642 -99.6875 232° Southwest 359 413 34,000  Level Kansas City Center
11:39PM 36.4031 -99.7844 232° Southwest 358 412 34,000  Level Kansas City Center
11:40PM 36.3422 -99.8828 232° Southwest 359 413 34,000  Level Kansas City Center
11:41PM 36.2839 -99.9817 234° Southwest 357 411 34,000  Level Kansas City Center
11:42PM 36.2244 -100.0803 233° Southwest 357 411 34,000  Level Kansas City Center
11:43PM 36.1664 -100.1789 234° Southwest 356 410 34,000  Level Kansas City Center
11:44PM 36.1058 -100.2764 232° Southwest 356 410 34,000  Level Kansas City Center
11:45PM 36.0478 -100.3753 234° Southwest 356 410 34,000  Level Kansas City Center
11:46PM 35.9878 -100.4733 233° Southwest 356 410 34,000  Level Kansas City Center
11:47PM 35.9286 -100.5717 233° Southwest 357 411 34,000  Level Kansas City Center
11:48PM 35.8719 -100.6661 234° Southwest 354 407 34,000  Level Kansas City Center
11:49PM 35.8122 -100.7644 233° Southwest 357 411 34,000  Level Kansas City Center
11:50PM 35.7522 -100.8611 233° Southwest 357 411 34,000  Level Kansas City Center
11:51PM 35.6822 -100.9775 234° Southwest 354 407 34,000  Level Kansas City Center
11:53PM 35.5992 -101.1122 233° Southwest 355 409 34,000  Level Albuquerque Center
11:54PM 35.5397 -101.2086 233° Southwest 354 407 34,000  Level Albuquerque Center
11:55PM 35.4803 -101.3053 233° Southwest 355 409 34,000  Level Albuquerque Center
11:56PM 35.4286 -101.3875 232° Southwest 357 411 34,000  Level Albuquerque Center
11:57PM 35.3564 -101.5025 232° Southwest 355 409 34,000  Level Albuquerque Center
11:58PM 35.2983 -101.5986 234° Southwest 352 405 34,000  Level Albuquerque Center
11:59PM 35.2461 -101.6856 234° Southwest 351 404 34,000  Level Albuquerque Center
12:00AM 35.1811 -101.7839 231° Southwest 360 414 34,000 -300 Level Albuquerque Center
12:01AM 35.1228 -101.8794 233° Southwest 353 406 33,500 -840 Descending Albuquerque Center
12:02AM 35.0542 -101.9869 232° Southwest 358 412 32,300 -1,140 Descending Albuquerque Center
12:03AM 34.9908 -102.0872 232° Southwest 370 426 31,300 -960 Descending Albuquerque Center
12:04AM 34.9247 -102.1928 233° Southwest 384 442 30,400 -1,020 Descending Albuquerque Center
12:05AM 34.8556 -102.3033 233° Southwest 404 465 29,300 -1,080 Descending Albuquerque Center
12:06AM 34.7844 -102.4119 231° Southwest 410 472 28,300 -660 Descending Albuquerque Center
12:07AM 34.7164 -102.5200 233° Southwest 404 465 28,000 -180 Descending Albuquerque Center
12:08AM 34.6483 -102.6292 233° Southwest 406 467 28,000  Level Albuquerque Center
12:09AM 34.5778 -102.7372 232° Southwest 410 472 28,000  Level Albuquerque Center
12:10AM 34.5083 -102.8469 232° Southwest 408 470 28,000  Level Albuquerque Center
12:11AM 34.4378 -102.9536 231° Southwest 408 470 28,000  Level Albuquerque Center
12:12AM 34.3667 -103.0661 233° Southwest 408 470 28,000  Level Albuquerque Center
12:13AM 34.2967 -103.1733 232° Southwest 405 466 28,000  Level Albuquerque Center
12:14AM 34.2217 -103.2672 226° Southwest 391 450 28,000  Level Albuquerque Center
12:15AM 34.1292 -103.3450 215° Southwest 397 457 28,000  Level Albuquerque Center
12:16AM 34.0356 -103.4208 214° Southwest 401 461 28,000  Level Albuquerque Center
12:17AM 33.9417 -103.4969 214° Southwest 401 461 28,000  Level Albuquerque Center
12:18AM 33.8492 -103.5717 214° Southwest 399 459 28,000  Level Albuquerque Center
12:19AM 33.7542 -103.6486 214° Southwest 402 463 28,000  Level Albuquerque Center
12:20AM 33.6819 -103.7694 234° Southwest 405 466 28,000  Level Albuquerque Center
12:21AM 33.6122 -103.8681 230° Southwest 391 450 28,000  Level Albuquerque Center
12:22AM 33.5319 -103.9600 224° Southwest 398 458 28,000 600 Level Albuquerque Center
12:23AM 33.4458 -104.0594 224° Southwest 399 459 29,300 960 Climbing Albuquerque Center
12:24AM 33.3669 -104.1508 224° Southwest 396 456 30,000 300 Climbing Albuquerque Center
12:25AM 33.2897 -104.2394 224° Southwest 387 445 30,000  Level Albuquerque Center
12:26AM 33.2122 -104.3275 224° Southwest 384 442 30,000  Level Albuquerque Center
12:27AM 33.1342 -104.4167 224° Southwest 387 445 30,000  Level Albuquerque Center
12:28AM 33.0556 -104.5072 224° Southwest 389 448 30,000  Level Albuquerque Center
12:29AM 32.9764 -104.5958 223° Southwest 391 450 30,000  Level Albuquerque Center
12:30AM 32.9006 -104.6842 224° Southwest 384 442 30,000  Level Albuquerque Center
12:31AM 32.8242 -104.7714 224° Southwest 382 440 30,000  Level Albuquerque Center
12:32AM 32.7483 -104.8572 224° Southwest 377 434 30,000  Level Albuquerque Center
12:33AM 32.6653 -104.9481 223° Southwest 377 434 30,000  Level Albuquerque Center
12:34AM 32.6022 -105.0256 226° Southwest 382 440 30,000  Level Albuquerque Center
12:35AM 32.5256 -105.1128 224° Southwest 383 441 30,000 -60 Level Albuquerque Center
12:36AM 32.4492 -105.1981 223° Southwest 381 438 29,900 -960 Descending Albuquerque Center
12:37AM 32.3733 -105.2811 223° Southwest 375 432 28,100 -2,700 Descending Albuquerque Center
12:38AM 32.3053 -105.3564 223° Southwest 377 434 25,300 -3,840 Descending Albuquerque Center
12:38AM 32.3000 -105.3628 226° Southwest 376 433 24,900 -1,440 Descending Albuquerque Center
12:38AM 32.2983 -105.3683 250° West 377 434 24,900 -3,300 Level Albuquerque Center
12:39AM 32.2219 -105.4486 222° Southwest 355 409 21,600 -3,840 Descending Albuquerque Center
12:39AM 32.2125 -105.4636 233° Southwest 361 415 21,000 -3,180 Descending Albuquerque Center
12:40AM 32.1533 -105.5269 222° Southwest 344 396 18,400 -3,240 Descending Albuquerque Center
12:40AM 32.1431 -105.5397 226° Southwest 347 399 17,800 -3,180 Descending Albuquerque Center
12:41AM 32.0817 -105.6006 220° Southwest 341 392 15,200 -2,880 Descending Albuquerque Center
12:41AM 32.0708 -105.6114 220° Southwest 340 391 14,900 -1,020 Descending Albuquerque Center
12:42AM 32.0128 -105.6661 219° Southwest 313 360 14,200 -900 Descending Albuquerque Center
12:42AM 32.0039 -105.6781 229° Southwest 319 367 14,000 -1,500 Descending Albuquerque Center
12:43AM 31.9667 -105.7406 235° Southwest 284 327 12,700 -1,620 Descending Albuquerque Center
12:43AM 31.9650 -105.7542 262° West 291 335 12,400 -1,140 Descending Albuquerque Center
12:44AM 31.9533 -105.8439 261° West 279 321 11,400 -1,020 Descending Albuquerque Center
12:45AM 31.9422 -105.9197 260° West 279 321 10,600 -1,140 Descending Albuquerque Center
12:45AM 31.9397 -105.9406 262° West 278 320 10,300 -1,020 Descending Albuquerque Center
12:46AM 31.9308 -106.0078 261° West 273 314 9,600 -900 Descending Albuquerque Center
12:46AM 31.9311 -106.0158 272° West 270 311 9,400 -1,020 Descending Albuquerque Center
12:47AM 31.9197 -106.0983 261° West 261 300 8,600 -900 Descending Albuquerque Center
12:47AM 31.9192 -106.0997 245° Southwest 262 302 8,500 -600 Descending Albuquerque Center
12:48AM 31.9103 -106.1758 262° West 243 280 8,000 -600 Descending Albuquerque Center
12:48AM 31.9106 -106.1786 277° West 247 284 7,900 -1,620 Descending Albuquerque Center
12:49AM 31.9011 -106.2531 262° West 234 269 6,400 -1,680 Descending Albuquerque Center
12:49AM 31.9000 -106.2572 253° West 237 273 6,200 -1,200 Descending Albuquerque Center
12:50AM 31.8681 -106.3064 233° Southwest 187 215 5,200 -1,140 Descending Albuquerque Center
12:50AM 31.8658 -106.3100 234° Southwest 199 229 5,100 -540 Descending Albuquerque Center
12:51AM 31.8442 -106.3400 230° Southwest 119 137 4,700 -540 Descending Albuquerque Center
12:52AM 31.8417 -106.3431 226° Southwest 142 163 4,600 -600 Descending Albuquerque Center
12:53AM 31.8136 -106.3811 229° Southwest 137 158 4,000 -600 Descending Albuquerque Center
12:54AM 31.8072 -106.3764 North  Level Estimated
01:01AM 31.8072 -106.3764 North  Level Estimated
01:02AM 31.8072 -106.3764 North  Level Estimated
01:03AM 31.8072 -106.3764 North  Level Estimated
01:04AM 31.8072 -106.3764 North  Level Estimated